createdAt,value
2023-05-24T00:05:00.909Z,3.85
2023-05-24T00:10:04.791Z,4.20
2023-05-24T00:15:07.276Z,4.00
2023-05-24T00:20:14.293Z,3.42
2023-05-24T00:25:16.230Z,3.95
2023-05-24T00:30:18.060Z,4.43
2023-05-24T00:35:19.876Z,3.47
2023-05-24T00:40:21.639Z,3.35
2023-05-24T00:45:25.506Z,3.28
2023-05-24T00:50:27.214Z,4.00
2023-05-24T00:55:30.365Z,3.13
2023-05-24T01:00:32.553Z,3.53
2023-05-24T01:05:34.279Z,4.03
2023-05-24T01:11:06.550Z,2.95
2023-05-24T01:16:15.517Z,2.70
2023-05-24T01:21:38.671Z,3.35
2023-05-24T01:27:12.307Z,3.83
2023-05-24T01:32:14.063Z,3.28
2023-05-24T01:37:15.766Z,3.30
2023-05-24T01:42:26.471Z,2.90
2023-05-24T01:47:28.176Z,2.95
2023-05-24T01:52:34.697Z,2.95
2023-05-24T01:57:41.394Z,2.78
2023-05-24T02:02:43.491Z,2.97
2023-05-24T02:07:46.170Z,2.55
2023-05-24T02:12:47.833Z,3.70
2023-05-24T02:17:49.545Z,2.72
2023-05-24T02:22:51.376Z,2.95
2023-05-24T02:27:53.243Z,2.55
2023-05-24T02:32:55.039Z,2.65
2023-05-24T02:37:58.647Z,2.72
2023-05-24T02:43:00.485Z,2.22
2023-05-24T02:48:02.448Z,2.95
2023-05-24T02:53:04.485Z,3.80
2023-05-24T02:58:06.332Z,2.72
2023-05-24T03:03:09.978Z,3.53
2023-05-24T03:08:11.834Z,2.92
2023-05-24T03:13:13.600Z,2.33
2023-05-24T03:18:15.470Z,2.53
2023-05-24T03:23:18.859Z,3.95
2023-05-24T03:28:22.340Z,2.38
2023-05-24T03:33:24.353Z,3.13
2023-05-24T03:38:26.284Z,3.25
2023-05-24T03:43:28.447Z,3.05
2023-05-24T03:48:32.531Z,2.97
2023-05-24T03:53:34.217Z,3.00
2023-05-24T03:58:36.028Z,3.03
2023-05-24T04:03:37.769Z,2.92
2023-05-24T04:08:39.702Z,2.72
2023-05-24T04:13:41.790Z,3.15
2023-05-24T04:18:45.347Z,3.38
2023-05-24T04:23:47.227Z,3.90
2023-05-24T04:28:50.151Z,2.63
2023-05-24T04:33:52.748Z,3.15
2023-05-24T04:38:56.138Z,2.78
2023-05-24T04:43:59.932Z,2.67
2023-05-24T04:49:02.312Z,3.17
2023-05-24T04:54:09.241Z,3.38
2023-05-24T04:59:11.143Z,2.75
2023-05-24T05:04:13.016Z,2.63
2023-05-24T05:09:15.844Z,2.50
2023-05-24T05:14:17.662Z,3.15
2023-05-24T05:19:19.572Z,3.70
2023-05-24T05:24:21.908Z,3.67
2023-05-24T05:29:24.520Z,3.85
2023-05-24T05:34:26.424Z,4.00
2023-05-24T05:39:28.400Z,3.10
2023-05-24T05:44:30.307Z,3.00
2023-05-24T05:49:32.802Z,2.45
2023-05-24T05:54:35.002Z,3.10
2023-05-24T05:59:38.240Z,3.10
2023-05-24T06:04:40.123Z,3.20
2023-05-24T06:09:41.936Z,3.13
2023-05-24T06:14:44.260Z,3.25
2023-05-24T06:19:45.942Z,2.80
2023-05-24T06:24:47.915Z,2.70
2023-05-24T06:29:50.002Z,2.80
2023-05-24T06:34:51.877Z,3.92
2023-05-24T06:39:53.711Z,3.08
2023-05-24T06:44:55.445Z,3.75
2023-05-24T06:49:57.637Z,2.85
2023-05-24T06:54:59.569Z,3.50
2023-05-24T07:00:01.658Z,3.75
2023-05-24T07:05:03.844Z,3.30
2023-05-24T07:10:08.487Z,2.83
2023-05-24T07:15:10.419Z,3.60
2023-05-24T07:20:13.826Z,3.83
2023-05-24T07:25:15.597Z,2.95
2023-05-24T07:30:30.977Z,3.83
2023-05-24T07:35:33.892Z,3.65
2023-05-24T07:40:35.643Z,3.42
2023-05-24T07:45:37.461Z,3.33
2023-05-24T07:50:39.196Z,3.63
2023-05-24T07:55:41.140Z,4.25
2023-05-24T08:00:43.096Z,4.60
2023-05-24T08:05:45.132Z,3.50
2023-05-24T08:10:47.179Z,3.85
2023-05-24T08:15:48.901Z,3.60
2023-05-24T08:20:50.686Z,4.20
2023-05-24T08:25:53.414Z,3.47
2023-05-24T08:30:55.693Z,3.95
2023-05-24T08:35:57.430Z,3.70
2023-05-24T08:40:59.306Z,3.47
2023-05-24T08:46:02.612Z,2.70
2023-05-24T08:51:05.016Z,3.42
2023-05-24T08:56:10.391Z,3.85
2023-05-24T09:01:17.058Z,4.43
2023-05-24T09:06:19.536Z,4.05
2023-05-24T09:11:23.021Z,4.45
2023-05-24T09:16:25.067Z,4.38
2023-05-24T09:21:27.300Z,4.82
2023-05-24T09:26:30.535Z,3.97
2023-05-24T09:31:37.380Z,3.90
2023-05-24T09:36:43.160Z,3.22
2023-05-24T09:41:55.701Z,4.38
2023-05-24T09:47:06.756Z,4.30
2023-05-24T09:52:08.644Z,3.97
2023-05-24T09:57:11.206Z,3.75
2023-05-24T10:02:13.184Z,4.57
2023-05-24T10:07:19.988Z,4.20
2023-05-24T10:12:23.348Z,3.80
2023-05-24T10:17:28.097Z,3.75
2023-05-24T10:22:31.091Z,4.10
2023-05-24T10:27:33.447Z,4.60
2023-05-24T10:32:39.142Z,3.97
2023-05-24T10:37:42.792Z,3.93
2023-05-24T10:42:45.248Z,3.90
2023-05-24T10:47:47.054Z,3.75
2023-05-24T10:52:49.630Z,3.90
2023-05-24T10:57:51.371Z,4.20
2023-05-24T11:03:04.169Z,3.50
2023-05-24T11:08:07.441Z,3.10
2023-05-24T11:13:09.373Z,3.75
2023-05-24T11:18:14.049Z,3.88
2023-05-24T11:23:16.717Z,4.45
2023-05-24T11:28:18.892Z,5.32
2023-05-24T11:33:24.945Z,3.75
2023-05-24T11:38:27.519Z,3.70
2023-05-24T11:43:31.377Z,4.07
2023-05-24T11:48:33.371Z,4.20
2023-05-24T11:53:35.058Z,3.60
2023-05-24T11:58:49.679Z,4.00
2023-05-24T12:03:53.410Z,4.15
2023-05-24T12:08:55.416Z,3.67
2023-05-24T12:13:58.432Z,4.53
2023-05-24T12:19:07.146Z,3.88
2023-05-24T12:24:22.160Z,4.18
2023-05-24T12:29:23.857Z,3.80
2023-05-24T12:34:25.547Z,4.57
2023-05-24T12:39:31.674Z,4.13
2023-05-24T12:44:37.957Z,4.57
2023-05-24T12:49:39.709Z,5.00
2023-05-24T12:54:41.379Z,4.00
2023-05-24T12:59:43.400Z,3.78
2023-05-24T13:04:45.148Z,4.10
2023-05-24T13:09:46.795Z,4.72
2023-05-24T13:14:50.706Z,4.50
2023-05-24T13:19:54.256Z,3.67
2023-05-24T13:24:56.029Z,3.97
2023-05-24T13:30:01.246Z,3.83
2023-05-24T13:35:05.290Z,3.88
2023-05-24T13:40:09.658Z,3.33
2023-05-24T13:45:12.561Z,3.90
2023-05-24T13:50:14.518Z,3.83
2023-05-24T13:55:16.706Z,3.50
2023-05-24T14:00:19.194Z,4.85
2023-05-24T14:05:27.431Z,3.55
2023-05-24T14:10:29.796Z,3.53
2023-05-24T14:15:32.097Z,3.25
2023-05-24T14:20:38.201Z,3.42
2023-05-24T14:25:42.332Z,3.03
2023-05-24T14:30:44.387Z,4.03
2023-05-24T14:35:46.401Z,3.03
2023-05-24T14:40:48.527Z,3.17
2023-05-24T14:45:50.298Z,3.83
2023-05-24T14:50:52.572Z,3.92
2023-05-24T14:55:54.485Z,4.20
2023-05-24T15:00:56.322Z,3.08
2023-05-24T15:05:58.311Z,3.17
2023-05-24T15:11:00.042Z,3.75
2023-05-24T15:16:01.788Z,3.30
2023-05-24T15:21:03.680Z,3.08
2023-05-24T15:26:05.788Z,3.17
2023-05-24T15:31:07.685Z,3.55
2023-05-24T15:36:11.017Z,2.70
2023-05-24T15:41:12.849Z,3.00
2023-05-24T15:46:14.812Z,3.08
2023-05-24T15:56:22.180Z,3.50
2023-05-24T16:01:24.020Z,3.10
2023-05-24T16:06:25.731Z,2.78
2023-05-24T16:11:27.526Z,3.50
2023-05-24T16:16:29.637Z,3.30
2023-05-24T16:21:33.118Z,3.00
2023-05-24T16:26:35.177Z,2.75
2023-05-24T16:31:37.124Z,2.78
2023-05-24T16:36:39.756Z,2.75
2023-05-24T16:41:41.588Z,3.40
2023-05-24T16:46:46.891Z,3.47
2023-05-24T16:51:49.732Z,2.88
2023-05-24T16:56:55.060Z,2.95
2023-05-24T17:01:56.958Z,2.47
2023-05-24T17:06:58.777Z,2.53
2023-05-24T17:12:00.584Z,2.00
2023-05-24T17:17:04.069Z,2.90
2023-05-24T17:22:08.731Z,3.00
2023-05-24T17:27:10.911Z,3.30
2023-05-24T17:32:12.817Z,2.70
2023-05-24T17:37:14.708Z,2.88
2023-05-24T17:42:16.506Z,2.47
2023-05-24T17:47:18.646Z,3.42
2023-05-24T17:52:20.438Z,2.72
2023-05-24T17:57:22.281Z,2.60
2023-05-24T18:02:24.412Z,3.15
2023-05-24T18:07:26.253Z,3.05
2023-05-24T18:12:28.597Z,3.15
2023-05-24T18:17:31.527Z,2.60
2023-05-24T18:22:33.519Z,3.97
2023-05-24T18:27:35.606Z,2.80
2023-05-24T18:32:41.991Z,2.70
2023-05-24T18:37:47.948Z,3.72
2023-05-24T18:42:52.922Z,3.47
2023-05-24T18:47:54.808Z,3.95
2023-05-24T18:52:56.825Z,4.53
2023-05-24T18:57:58.730Z,3.78
2023-05-24T19:03:01.095Z,4.57
2023-05-24T19:08:02.909Z,4.60
2023-05-24T19:13:06.553Z,3.95
2023-05-24T19:18:08.986Z,4.57
2023-05-24T19:23:10.827Z,4.45
2023-05-24T19:28:12.813Z,3.95
2023-05-24T19:33:14.885Z,3.88
2023-05-24T19:38:17.977Z,3.72
2023-05-24T19:43:20.008Z,3.33
2023-05-24T19:48:22.663Z,3.50
2023-05-24T19:53:24.648Z,4.15
2023-05-24T19:58:26.516Z,2.97
2023-05-24T20:03:28.322Z,3.63
2023-05-24T20:08:30.182Z,3.05
2023-05-24T20:13:31.889Z,3.92
2023-05-24T20:18:35.394Z,3.95
2023-05-24T20:23:37.172Z,3.97
2023-05-24T20:28:38.834Z,4.50
2023-05-24T20:33:40.726Z,3.63
2023-05-24T20:38:42.513Z,3.40
2023-05-24T20:43:44.303Z,3.90
2023-05-24T20:48:46.728Z,3.55
2023-05-24T20:53:51.689Z,4.22
2023-05-24T20:58:54.334Z,3.47
2023-05-24T21:03:56.698Z,3.97
2023-05-24T21:08:58.942Z,3.95
2023-05-24T21:14:00.731Z,3.80
2023-05-24T21:19:02.491Z,3.78
2023-05-24T21:24:04.389Z,4.53
2023-05-24T21:29:06.133Z,3.90
2023-05-24T21:34:07.909Z,4.82
2023-05-24T21:39:09.698Z,4.40
2023-05-24T21:44:11.411Z,5.10
2023-05-24T21:49:13.164Z,4.45
2023-05-24T21:54:15.145Z,4.30
2023-05-24T21:59:16.933Z,4.30
2023-05-24T22:04:20.676Z,4.43
2023-05-24T22:09:27.987Z,4.53
2023-05-24T22:14:29.743Z,5.22
2023-05-24T22:24:41.389Z,5.07
2023-05-24T22:29:43.886Z,5.00
2023-05-24T22:34:45.812Z,4.13
2023-05-24T22:39:47.531Z,4.43
2023-05-24T22:44:49.239Z,4.88
2023-05-24T22:49:54.132Z,4.50
2023-05-24T22:54:56.135Z,4.97
2023-05-24T22:59:57.797Z,5.07
2023-05-24T23:05:00.259Z,4.80
2023-05-24T23:10:03.300Z,4.68
2023-05-24T23:15:05.304Z,4.80
2023-05-24T23:20:10.100Z,5.10
2023-05-24T23:25:11.900Z,5.82
2023-05-24T23:30:13.631Z,5.93
2023-05-24T23:35:15.898Z,5.32
2023-05-24T23:40:17.860Z,4.85
2023-05-24T23:45:19.664Z,5.68
2023-05-24T23:50:22.654Z,5.63
2023-05-24T23:55:24.631Z,4.47
